createdAt,value
2022-10-30T00:00:15.613Z,9.88
2022-10-30T00:02:43.269Z,10.13
2022-10-30T00:05:10.919Z,10.57
2022-10-30T00:07:38.563Z,10.35
2022-10-30T00:10:07.078Z,11.82
2022-10-30T00:12:36.070Z,11.85
2022-10-30T00:15:04.488Z,12.27
2022-10-30T00:17:32.130Z,12.73
2022-10-30T00:19:59.803Z,12.45
2022-10-30T00:22:27.436Z,13.05
2022-10-30T00:24:55.119Z,13.15
2022-10-30T00:27:22.827Z,14.93
2022-10-30T00:29:51.842Z,14.48
2022-10-30T00:32:19.503Z,15.63
2022-10-30T00:34:47.149Z,16.20
2022-10-30T00:37:14.808Z,16.10
2022-10-30T00:39:42.488Z,16.63
2022-10-30T00:42:12.075Z,18.13
2022-10-30T00:44:44.169Z,18.40
2022-10-30T00:47:16.375Z,19.60
2022-10-30T00:49:49.674Z,19.15
2022-10-30T00:52:17.381Z,21.02
2022-10-30T00:54:45.102Z,22.08
2022-10-30T00:57:14.350Z,22.40
2022-10-30T00:59:42.360Z,22.27
2022-10-30T01:02:10.089Z,23.70
2022-10-30T01:04:39.197Z,23.55
2022-10-30T01:07:08.255Z,25.25
2022-10-30T01:09:36.099Z,27.40
2022-10-30T01:12:03.874Z,27.02
2022-10-30T01:14:31.624Z,28.30
2022-10-30T01:17:10.559Z,30.35
2022-10-30T01:19:42.614Z,31.25
2022-10-30T01:22:23.485Z,32.28
2022-10-30T01:24:57.083Z,34.03
2022-10-30T01:27:33.942Z,35.97
2022-10-30T01:30:11.642Z,36.40
2022-10-30T01:32:43.409Z,37.95
2022-10-30T01:35:16.277Z,38.97
2022-10-30T01:37:47.920Z,40.85
2022-10-30T01:40:17.293Z,43.03
2022-10-30T01:42:47.287Z,42.85
2022-10-30T01:45:20.084Z,44.30
2022-10-30T01:47:55.774Z,46.67
2022-10-30T01:50:30.388Z,48.85
2022-10-30T01:52:59.464Z,48.40
2022-10-30T01:55:33.129Z,52.85
2022-10-30T01:58:05.557Z,52.70
2022-10-30T02:00:33.204Z,52.13
2022-10-30T02:03:01.343Z,52.45
2022-10-30T02:05:34.533Z,55.50
2022-10-30T02:08:02.600Z,56.83
2022-10-30T02:10:32.118Z,54.90
2022-10-30T02:13:00.115Z,59.78
2022-10-30T02:15:28.239Z,60.72
2022-10-30T02:17:56.493Z,57.15
2022-10-30T02:20:25.828Z,60.70
2022-10-30T02:22:57.979Z,61.47
2022-10-30T02:25:31.573Z,61.08
2022-10-30T02:27:59.770Z,61.45
2022-10-30T02:30:29.341Z,62.83
2022-10-30T02:32:57.432Z,64.65
2022-10-30T02:35:26.950Z,64.28
2022-10-30T02:37:54.865Z,66.30
2022-10-30T02:40:22.739Z,65.50
2022-10-30T02:42:53.171Z,63.13
2022-10-30T02:45:20.907Z,67.13
2022-10-30T02:47:49.107Z,65.15
2022-10-30T02:50:16.978Z,67.47
2022-10-30T02:52:46.243Z,65.85
2022-10-30T02:55:13.959Z,66.70
2022-10-30T02:57:42.489Z,65.88
2022-10-30T03:00:11.309Z,65.72
2022-10-30T03:02:39.146Z,65.32
2022-10-30T03:05:07.464Z,63.17
2022-10-30T03:07:35.172Z,66.82
2022-10-30T03:10:04.541Z,64.18
2022-10-30T03:12:33.363Z,63.15
2022-10-30T03:15:01.042Z,64.32
2022-10-30T03:17:28.878Z,64.93
2022-10-30T03:19:56.594Z,64.78
2022-10-30T03:22:24.250Z,66.43
2022-10-30T03:24:51.914Z,63.30
2022-10-30T03:27:21.291Z,61.88
2022-10-30T03:29:51.468Z,61.33
2022-10-30T03:32:19.233Z,64.88
2022-10-30T03:34:52.201Z,61.65
2022-10-30T03:37:20.095Z,59.90
2022-10-30T03:39:47.738Z,61.20
2022-10-30T03:42:15.429Z,59.33
2022-10-30T03:44:45.381Z,58.15
2022-10-30T03:47:13.327Z,57.72
2022-10-30T03:49:44.167Z,59.33
2022-10-30T03:52:15.127Z,60.15
2022-10-30T03:54:42.786Z,55.58
2022-10-30T03:57:13.183Z,57.10
2022-10-30T03:59:51.884Z,55.38
2022-10-30T04:02:38.045Z,54.60
2022-10-30T04:05:06.248Z,54.40
2022-10-30T04:07:33.969Z,53.22
2022-10-30T04:10:01.673Z,51.47
2022-10-30T04:12:30.721Z,50.83
2022-10-30T04:14:59.698Z,50.83
2022-10-30T04:17:27.359Z,48.47
2022-10-30T04:19:55.042Z,46.45
2022-10-30T04:22:22.712Z,47.60
2022-10-30T04:24:50.787Z,45.15
2022-10-30T04:27:19.866Z,45.63
2022-10-30T04:29:47.618Z,46.05
2022-10-30T04:32:16.678Z,44.63
2022-10-30T04:34:44.327Z,44.40
2022-10-30T04:37:12.071Z,43.38
2022-10-30T04:39:43.745Z,41.90
2022-10-30T04:42:18.672Z,40.63
2022-10-30T04:44:46.413Z,40.40
2022-10-30T04:47:15.802Z,39.08
2022-10-30T04:49:44.841Z,38.95
2022-10-30T04:52:12.895Z,38.30
2022-10-30T04:54:40.700Z,37.40
2022-10-30T04:57:09.049Z,35.50
2022-10-30T04:59:37.199Z,34.47
2022-10-30T05:02:05.091Z,34.28
2022-10-30T05:04:32.893Z,32.78
2022-10-30T05:07:02.104Z,33.45
2022-10-30T05:09:30.008Z,32.55
2022-10-30T05:11:59.096Z,30.60
2022-10-30T05:14:30.393Z,30.27
2022-10-30T05:16:58.175Z,30.60
2022-10-30T05:19:25.953Z,28.98
2022-10-30T05:21:56.516Z,29.00
2022-10-30T05:24:25.699Z,26.77
2022-10-30T05:26:53.414Z,26.38
2022-10-30T05:29:21.118Z,25.95
2022-10-30T05:31:48.810Z,26.45
2022-10-30T05:34:16.479Z,25.50
2022-10-30T05:36:46.210Z,25.20
2022-10-30T05:39:15.268Z,24.08
2022-10-30T05:41:47.918Z,24.17
2022-10-30T05:44:29.147Z,23.02
2022-10-30T05:47:02.492Z,22.20
2022-10-30T05:49:33.937Z,21.10
2022-10-30T05:52:04.467Z,20.85
2022-10-30T05:54:33.339Z,20.15
2022-10-30T05:57:09.652Z,18.92
2022-10-30T05:59:39.687Z,18.77
2022-10-30T06:02:07.573Z,18.08
2022-10-30T06:04:35.763Z,17.13
2022-10-30T06:07:08.173Z,16.25
2022-10-30T06:09:36.050Z,17.02
2022-10-30T06:12:23.959Z,15.50
2022-10-30T06:14:59.313Z,15.70
2022-10-30T06:17:26.981Z,15.05
2022-10-30T06:20:13.214Z,14.77
2022-10-30T06:23:04.989Z,14.20
2022-10-30T06:25:43.147Z,13.18
2022-10-30T06:28:16.495Z,12.68
2022-10-30T06:30:44.205Z,12.60
2022-10-30T06:33:12.240Z,11.88
2022-10-30T06:35:45.646Z,11.60
2022-10-30T06:38:13.321Z,11.35
2022-10-30T06:40:41.156Z,11.10
2022-10-30T06:43:32.385Z,10.43
2022-10-30T06:46:05.179Z,9.93
2022-10-30T06:48:34.757Z,10.45
2022-10-30T06:51:03.082Z,10.15
2022-10-30T06:53:33.739Z,9.23
2022-10-30T06:56:21.421Z,8.38
2022-10-30T06:59:06.887Z,8.60
2022-10-30T07:01:45.215Z,8.18
2022-10-30T07:04:16.104Z,8.13
2022-10-30T07:06:44.920Z,7.82
2022-10-30T07:09:12.892Z,7.45
2022-10-30T07:11:45.587Z,7.00
2022-10-30T07:14:20.320Z,7.68
2022-10-30T07:16:55.451Z,6.90
2022-10-30T07:19:23.400Z,6.70
2022-10-30T07:21:51.173Z,6.60
2022-10-30T07:24:18.933Z,6.50
2022-10-30T07:27:05.344Z,6.30
2022-10-30T07:29:38.941Z,5.95
2022-10-30T07:32:22.068Z,6.07
2022-10-30T07:35:13.029Z,5.53
2022-10-30T07:38:04.536Z,5.68
2022-10-30T07:40:42.505Z,5.32
2022-10-30T07:43:33.879Z,5.05
2022-10-30T07:46:23.234Z,5.40
2022-10-30T07:49:19.696Z,4.82
2022-10-30T07:51:53.754Z,5.05
2022-10-30T07:54:21.803Z,4.88
2022-10-30T07:56:49.583Z,4.70
2022-10-30T07:59:17.344Z,4.82
2022-10-30T08:02:21.636Z,4.78
2022-10-30T08:05:10.312Z,4.93
2022-10-30T08:08:04.529Z,4.18
2022-10-30T08:10:32.253Z,4.40
2022-10-30T08:12:59.954Z,4.25
2022-10-30T08:15:28.290Z,4.18
2022-10-30T08:17:57.522Z,4.30
2022-10-30T08:20:26.569Z,3.88
2022-10-30T08:22:54.882Z,3.75
2022-10-30T08:25:26.386Z,3.95
2022-10-30T08:27:55.833Z,4.13
2022-10-30T08:30:26.246Z,4.05
2022-10-30T08:33:00.034Z,3.75
2022-10-30T08:35:49.648Z,3.50
2022-10-30T08:38:17.392Z,3.92
2022-10-30T08:40:49.701Z,3.95
2022-10-30T08:43:18.382Z,3.60
2022-10-30T08:45:46.133Z,3.63
2022-10-30T08:48:17.497Z,4.13
2022-10-30T08:50:45.560Z,4.40
2022-10-30T08:53:20.335Z,3.65
2022-10-30T08:55:49.460Z,3.83
2022-10-30T08:58:24.802Z,3.58
2022-10-30T09:00:57.194Z,3.50
2022-10-30T09:03:47.863Z,3.53
2022-10-30T09:06:44.416Z,3.65
2022-10-30T09:09:35.670Z,3.80
2022-10-30T09:12:04.622Z,3.88
2022-10-30T09:14:39.345Z,3.65
2022-10-30T09:17:09.462Z,5.30
2022-10-30T09:19:39.853Z,4.00
2022-10-30T09:22:07.981Z,15.13
2022-10-30T09:24:40.587Z,35.92
2022-10-30T09:27:28.479Z,18.27
2022-10-30T09:29:58.423Z,18.38
2022-10-30T09:32:31.242Z,53.63
2022-10-30T09:35:13.039Z,26.23
2022-10-30T09:37:42.485Z,27.70
2022-10-30T09:40:23.042Z,27.02
2022-10-30T09:42:51.440Z,70.07
2022-10-30T09:45:59.003Z,38.60
2022-10-30T09:48:40.342Z,29.40
2022-10-30T09:51:30.113Z,31.15
2022-10-30T09:54:02.526Z,26.17
2022-10-30T09:56:40.520Z,29.35
2022-10-30T09:59:12.099Z,16.75
2022-10-30T10:01:42.504Z,22.70
2022-10-30T10:04:23.826Z,13.88
2022-10-30T10:07:17.433Z,19.58
2022-10-30T10:09:53.829Z,20.63
2022-10-30T10:13:01.686Z,15.73
2022-10-30T10:15:34.675Z,11.82
2022-10-30T10:18:02.562Z,15.98
2022-10-30T10:20:33.227Z,17.30
2022-10-30T10:23:05.725Z,14.48
2022-10-30T10:25:33.503Z,21.48
2022-10-30T10:28:07.986Z,13.18
2022-10-30T10:30:40.403Z,13.43
2022-10-30T10:33:44.733Z,12.68
2022-10-30T10:36:21.279Z,13.15
2022-10-30T10:38:57.605Z,15.70
2022-10-30T10:41:30.982Z,14.82
2022-10-30T10:44:07.605Z,16.35
2022-10-30T10:46:42.956Z,15.68
2022-10-30T10:49:18.436Z,22.45
2022-10-30T10:51:48.435Z,18.90
2022-10-30T10:54:18.843Z,29.38
2022-10-30T10:56:48.274Z,30.50
2022-10-30T10:59:17.581Z,17.35
2022-10-30T11:01:47.049Z,18.35
2022-10-30T11:04:17.194Z,36.33
2022-10-30T11:06:47.494Z,27.95
2022-10-30T11:09:19.425Z,34.58
2022-10-30T11:11:47.138Z,22.48
2022-10-30T11:14:15.957Z,17.55
2022-10-30T11:16:54.171Z,77.35
2022-10-30T11:19:21.886Z,17.35
2022-10-30T11:21:51.176Z,24.30
2022-10-30T11:24:29.546Z,16.95
2022-10-30T11:26:57.852Z,74.18
2022-10-30T11:29:26.099Z,20.88
2022-10-30T11:32:02.592Z,19.00
2022-10-30T11:34:33.468Z,16.92
2022-10-30T11:37:01.327Z,14.73
2022-10-30T11:39:31.418Z,8.40
2022-10-30T11:42:04.664Z,14.95
2022-10-30T11:44:34.978Z,14.93
2022-10-30T11:47:02.775Z,10.40
2022-10-30T11:49:41.015Z,14.20
2022-10-30T11:52:08.831Z,11.88
2022-10-30T11:54:40.414Z,11.45
2022-10-30T11:57:18.285Z,11.68
2022-10-30T11:59:46.448Z,16.38
2022-10-30T12:02:21.662Z,14.77
2022-10-30T12:04:49.839Z,15.35
2022-10-30T12:07:25.509Z,19.42
2022-10-30T12:09:54.595Z,14.15
2022-10-30T12:12:24.249Z,14.23
2022-10-30T12:14:52.211Z,12.25
2022-10-30T12:17:20.012Z,13.75
2022-10-30T12:19:49.241Z,11.93
2022-10-30T12:22:28.272Z,12.52
2022-10-30T12:24:57.580Z,18.25
2022-10-30T12:27:25.293Z,11.15
2022-10-30T12:30:08.462Z,15.93
2022-10-30T12:32:44.696Z,8.45
2022-10-30T12:35:25.586Z,10.93
2022-10-30T12:37:54.172Z,16.63
2022-10-30T12:40:25.508Z,12.75
2022-10-30T12:42:56.210Z,18.83
2022-10-30T12:45:25.898Z,16.45
2022-10-30T12:47:55.210Z,19.80
2022-10-30T12:50:24.367Z,16.05
2022-10-30T12:52:55.655Z,29.17
2022-10-30T12:55:27.500Z,29.42
2022-10-30T12:57:57.940Z,18.30
2022-10-30T13:00:25.622Z,22.85
2022-10-30T13:02:57.205Z,30.77
2022-10-30T13:05:32.117Z,84.75
2022-10-30T13:08:05.433Z,15.10
2022-10-30T13:10:36.640Z,14.52
2022-10-30T13:13:06.239Z,16.48
2022-10-30T13:15:34.867Z,19.52
2022-10-30T13:18:12.203Z,23.30
2022-10-30T13:20:39.837Z,15.65
2022-10-30T13:23:10.267Z,17.35
2022-10-30T13:25:42.613Z,14.55
2022-10-30T13:28:14.016Z,18.17
2022-10-30T13:30:42.401Z,16.73
2022-10-30T13:33:12.919Z,13.35
2022-10-30T13:35:43.975Z,12.65
2022-10-30T13:38:26.139Z,14.50
2022-10-30T13:40:57.410Z,15.02
2022-10-30T13:43:26.507Z,12.48
2022-10-30T13:46:10.594Z,12.68
2022-10-30T13:48:47.191Z,17.10
2022-10-30T13:51:22.681Z,12.00
2022-10-30T13:53:53.793Z,23.48
2022-10-30T13:56:22.851Z,10.70
2022-10-30T13:58:53.053Z,13.55
2022-10-30T14:01:22.342Z,34.60
2022-10-30T14:03:52.484Z,28.95
2022-10-30T14:06:25.621Z,26.65
2022-10-30T14:08:55.777Z,24.60
2022-10-30T14:11:24.819Z,53.50
2022-10-30T14:13:55.096Z,59.67
2022-10-30T14:16:34.545Z,37.55
2022-10-30T14:19:02.694Z,59.03
2022-10-30T14:21:32.239Z,50.88
2022-10-30T14:24:03.720Z,145.23
2022-10-30T14:26:32.805Z,55.90
2022-10-30T14:29:00.526Z,352.17
2022-10-30T14:31:34.904Z,158.73
2022-10-30T14:34:02.787Z,31.70
2022-10-30T14:36:49.390Z,54.65
2022-10-30T14:39:28.048Z,21.70
2022-10-30T14:42:11.472Z,17.15
2022-10-30T14:44:53.357Z,17.75
2022-10-30T14:48:03.150Z,12.70
2022-10-30T14:50:53.970Z,24.38
2022-10-30T14:53:35.546Z,15.90
2022-10-30T14:56:06.845Z,14.20
2022-10-30T14:58:36.511Z,13.35
2022-10-30T15:01:21.580Z,12.57
2022-10-30T15:03:53.698Z,17.90
2022-10-30T15:06:24.758Z,23.60
2022-10-30T15:09:04.730Z,15.98
2022-10-30T15:11:38.411Z,17.65
2022-10-30T15:14:20.976Z,16.17
2022-10-30T15:16:54.482Z,13.27
2022-10-30T15:19:22.602Z,12.00
2022-10-30T15:21:52.360Z,15.63
2022-10-30T15:24:21.000Z,13.18
2022-10-30T15:26:49.505Z,32.47
2022-10-30T15:29:20.454Z,23.13
2022-10-30T15:31:58.655Z,12.93
2022-10-30T15:34:27.091Z,12.77
2022-10-30T15:36:54.768Z,10.48
2022-10-30T15:39:22.462Z,9.57
2022-10-30T15:41:51.190Z,15.10
2022-10-30T15:44:21.576Z,18.40
2022-10-30T15:46:49.980Z,15.45
2022-10-30T15:49:21.094Z,22.70
2022-10-30T15:51:48.754Z,16.05
2022-10-30T15:54:19.158Z,17.30
2022-10-30T15:57:17.877Z,15.18
2022-10-30T15:59:36.139Z,12.73
2022-10-30T16:02:03.897Z,16.73
2022-10-30T16:04:32.719Z,15.63
2022-10-30T16:07:01.122Z,22.35
2022-10-30T16:09:29.332Z,13.80
2022-10-30T16:11:59.590Z,14.95
2022-10-30T16:14:28.699Z,13.13
2022-10-30T16:16:59.966Z,10.98
2022-10-30T16:19:29.330Z,14.68
2022-10-30T16:21:57.584Z,15.88
2022-10-30T16:24:27.932Z,13.95
2022-10-30T16:27:05.603Z,16.45
2022-10-30T16:29:33.405Z,13.82
2022-10-30T16:32:02.467Z,17.05
2022-10-30T16:34:34.679Z,25.13
2022-10-30T16:37:02.688Z,18.23
2022-10-30T16:39:30.446Z,20.55
2022-10-30T16:41:58.772Z,15.43
2022-10-30T16:44:29.592Z,14.55
2022-10-30T16:46:58.095Z,17.83
2022-10-30T16:49:27.897Z,15.60
2022-10-30T16:51:59.602Z,19.58
2022-10-30T16:54:29.506Z,14.95
2022-10-30T16:56:57.848Z,15.52
2022-10-30T16:59:28.321Z,17.30
2022-10-30T17:01:57.333Z,13.50
2022-10-30T17:04:25.139Z,15.93
2022-10-30T17:07:02.718Z,15.60
2022-10-30T17:09:30.420Z,14.63
2022-10-30T17:12:05.171Z,15.50
2022-10-30T17:14:33.258Z,15.95
2022-10-30T17:17:00.918Z,15.27
2022-10-30T17:19:39.414Z,12.32
2022-10-30T17:22:11.333Z,13.70
2022-10-30T17:24:39.126Z,11.38
2022-10-30T17:27:08.507Z,9.50
2022-10-30T17:29:45.489Z,11.63
2022-10-30T17:32:18.592Z,13.70
2022-10-30T17:34:46.275Z,13.27
2022-10-30T17:37:15.282Z,14.35
2022-10-30T17:39:42.921Z,11.20
2022-10-30T17:42:10.652Z,11.98
2022-10-30T17:44:38.350Z,10.02
2022-10-30T17:47:13.379Z,13.85
2022-10-30T17:49:41.096Z,12.23
2022-10-30T17:52:12.176Z,14.13
2022-10-30T17:54:41.651Z,11.50
2022-10-30T17:57:10.876Z,8.60
2022-10-30T17:59:38.574Z,9.70
2022-10-30T18:02:12.168Z,11.82
2022-10-30T18:04:42.101Z,13.10
2022-10-30T18:07:09.895Z,14.73
2022-10-30T18:09:37.566Z,10.88
2022-10-30T18:12:07.151Z,11.77
2022-10-30T18:14:34.866Z,12.82
2022-10-30T18:17:02.559Z,14.07
2022-10-30T18:19:30.259Z,9.98
2022-10-30T18:21:57.927Z,11.40
2022-10-30T18:24:25.693Z,12.52
2022-10-30T18:26:53.771Z,13.93
2022-10-30T18:29:22.820Z,12.52
2022-10-30T18:31:50.484Z,9.98
2022-10-30T18:34:20.949Z,10.07
2022-10-30T18:36:48.803Z,12.00
2022-10-30T18:39:16.477Z,11.38
2022-10-30T18:41:44.758Z,9.80
2022-10-30T18:44:16.115Z,11.55
2022-10-30T18:46:45.264Z,11.88
2022-10-30T18:49:13.053Z,15.98
2022-10-30T18:51:40.834Z,14.35
2022-10-30T18:54:12.794Z,11.23
2022-10-30T18:56:40.470Z,12.98
2022-10-30T18:59:08.216Z,12.48
2022-10-30T19:01:36.001Z,11.57
2022-10-30T19:04:07.023Z,11.75
2022-10-30T19:06:34.921Z,10.40
2022-10-30T19:09:02.736Z,13.13
2022-10-30T19:11:31.733Z,14.50
2022-10-30T19:13:59.853Z,11.57
2022-10-30T19:16:27.592Z,13.98
2022-10-30T19:18:55.351Z,14.10
2022-10-30T19:21:25.795Z,10.38
2022-10-30T19:23:53.699Z,12.40
2022-10-30T19:26:21.525Z,14.45
2022-10-30T19:28:49.214Z,11.75
2022-10-30T19:31:17.926Z,13.15
2022-10-30T19:33:45.727Z,14.23
2022-10-30T19:36:27.730Z,13.30
2022-10-30T19:38:55.865Z,13.52
2022-10-30T19:41:24.555Z,11.80
2022-10-30T19:43:52.560Z,13.30
2022-10-30T19:46:20.294Z,13.45
2022-10-30T19:48:57.264Z,14.50
2022-10-30T19:51:27.463Z,11.25
2022-10-30T19:53:55.183Z,13.68
2022-10-30T19:56:23.029Z,11.52
2022-10-30T19:58:50.875Z,14.05
2022-10-30T20:01:18.774Z,12.43
2022-10-30T20:03:46.580Z,12.38
2022-10-30T20:06:14.464Z,11.85
2022-10-30T20:08:43.535Z,12.82
2022-10-30T20:11:11.226Z,12.68
2022-10-30T20:13:38.891Z,11.27
2022-10-30T20:16:07.501Z,13.88
2022-10-30T20:18:36.010Z,13.45
2022-10-30T20:21:04.589Z,14.15
2022-10-30T20:23:32.267Z,12.13
2022-10-30T20:26:02.258Z,13.05
2022-10-30T20:28:31.075Z,13.23
2022-10-30T20:30:58.743Z,14.55
2022-10-30T20:33:26.642Z,13.73
2022-10-30T20:35:55.207Z,12.32
2022-10-30T20:38:23.825Z,14.38
2022-10-30T20:40:53.896Z,12.23
2022-10-30T20:43:25.294Z,13.18
2022-10-30T20:45:54.049Z,14.68
2022-10-30T20:48:21.702Z,11.40
2022-10-30T20:50:50.941Z,13.07
2022-10-30T20:53:18.723Z,13.70
2022-10-30T20:55:46.605Z,13.35
2022-10-30T20:58:14.268Z,12.07
2022-10-30T21:00:43.430Z,13.27
2022-10-30T21:03:14.190Z,11.98
2022-10-30T21:05:44.398Z,12.90
2022-10-30T21:08:13.024Z,14.23
2022-10-30T21:10:40.818Z,11.40
2022-10-30T21:13:09.457Z,14.57
2022-10-30T21:15:39.296Z,11.23
2022-10-30T21:18:08.357Z,13.18
2022-10-30T21:20:36.459Z,12.95
2022-10-30T21:23:04.141Z,13.07
2022-10-30T21:25:32.675Z,11.52
2022-10-30T21:28:00.900Z,12.13
2022-10-30T21:30:28.690Z,12.15
2022-10-30T21:32:56.359Z,13.20
2022-10-30T21:35:25.344Z,13.60
2022-10-30T21:37:52.994Z,12.32
2022-10-30T21:40:20.698Z,12.32
2022-10-30T21:42:48.745Z,14.25
2022-10-30T21:45:16.573Z,15.20
2022-10-30T21:47:44.209Z,16.05
2022-10-30T21:50:12.939Z,12.48
2022-10-30T21:52:42.267Z,14.30
2022-10-30T21:55:10.173Z,13.40
2022-10-30T21:57:38.120Z,12.98
2022-10-30T22:00:07.558Z,13.10
2022-10-30T22:02:35.930Z,12.38
2022-10-30T22:05:03.582Z,13.70
2022-10-30T22:07:31.260Z,13.23
2022-10-30T22:10:00.254Z,13.18
2022-10-30T22:12:27.921Z,13.65
2022-10-30T22:14:55.649Z,14.48
2022-10-30T22:17:23.338Z,14.60
2022-10-30T22:19:51.031Z,14.30
2022-10-30T22:22:18.970Z,14.93
2022-10-30T22:24:46.612Z,13.90
2022-10-30T22:27:15.702Z,14.02
2022-10-30T22:29:43.477Z,13.55
2022-10-30T22:32:11.183Z,13.60
2022-10-30T22:34:38.862Z,13.85
2022-10-30T22:37:06.531Z,13.52
2022-10-30T22:39:34.219Z,13.43
2022-10-30T22:42:01.909Z,12.65
2022-10-30T22:44:30.902Z,13.40
2022-10-30T22:46:58.573Z,13.52
2022-10-30T22:49:26.224Z,13.02
2022-10-30T22:51:53.886Z,12.80
2022-10-30T22:54:21.544Z,13.73
2022-10-30T22:56:49.221Z,13.52
2022-10-30T22:59:16.873Z,13.38
2022-10-30T23:01:45.951Z,12.35
2022-10-30T23:04:14.960Z,14.50
2022-10-30T23:06:43.009Z,12.65
2022-10-30T23:09:15.534Z,12.45
2022-10-30T23:11:43.297Z,13.40
2022-10-30T23:14:10.932Z,11.85
2022-10-30T23:16:38.588Z,12.98
2022-10-30T23:19:07.565Z,11.88
2022-10-30T23:21:35.247Z,12.88
2022-10-30T23:24:03.580Z,12.50
2022-10-30T23:26:32.030Z,12.40
2022-10-30T23:29:00.239Z,12.52
2022-10-30T23:31:28.598Z,12.23
2022-10-30T23:33:57.539Z,11.45
2022-10-30T23:36:26.752Z,11.55
2022-10-30T23:38:54.523Z,11.35
2022-10-30T23:41:22.321Z,11.65
2022-10-30T23:43:50.017Z,11.85
2022-10-30T23:46:17.724Z,11.82
2022-10-30T23:48:45.415Z,11.52
2022-10-30T23:51:13.130Z,11.27
2022-10-30T23:53:42.131Z,11.57
2022-10-30T23:56:09.842Z,12.25
2022-10-30T23:58:37.474Z,11.40
